Wainwright, AK

3:13 PM AKST on January 20, 2017 (GMT -0900)
Wiley Post-Will Rogers Memorial | | Change Station
Active Advisory: Wind Chill Advisory

Elev 43 ft 71.29 °N, 156.77 °W | Updated 5 minutes ago

Mostly Cloudy
Mostly Cloudy
-24 °F
Feels Like -46 °F
N
10
Wind Variable Wind from SW

Today
High -- | Low -- °F
--% Chance of Precip.
Yesterday
High -- | Low -- °F
Precip. -- in
Pressure 29.54 in
Visibility 3.0 miles
Clouds Mostly Cloudy 2800 ft
Windchill -46 °F
Dew Point -31 °F
Humidity 70%
Rainfall 0.00 in
Snow Depth Not available.
1:05 PM 2:10 PM
Last Quarter, 40% visible
SPECI PABR 210008Z 22009KT 3SM -SN BKN028 M31/M35 A2954 RMK AO2 SNB2354 P0000 T13111350
Pressure 29.54 in
Visibility 3.0 miles
Clouds Mostly Cloudy 2800 ft
Windchill -46 °F
Dew Point -31 °F
Humidity 70%
Rainfall 0.00 in
Snow Depth Not available.
1:05 PM 2:10 PM
Last Quarter, 40% visible
SPECI PABR 210008Z 22009KT 3SM -SN BKN028 M31/M35 A2954 RMK AO2 SNB2354 P0000 T13111350

Get Your Daily Forecast Email!

Thanks for signing up!

Be on the lookout for a verification email in your inbox.

You'll start receiving the daily forecast at 8 AM.

×

10-Day Weather Forecast

Almanac

Astronomy

Jan. 20, 2017 Rise Set
Actual Time
Civil Twilight
Nautical Twilight
Astronomical Twilight
Moon
Length of Visible Light
Length of Day
Tomorrow will be .
, % of the Moon is Illuminated

Today's Extremes

State Highs State Lows

Community

WunderPhotos

Upload Photos

1,962,540 photos uploaded!

WunderBlog® & News

Nearby

Air Quality

  Air Quality AQ Index Pollutant
Not available.

Snow Depth

Station Depth Elevation

Earthquake Activity

City Distance Mag. Time & Date
Minimum magnitude displayed is 2.5.

Coastal Water Temperatures

Place Temperature

Stations

Nearby Weather Stations

Station Location Temp. Windchill Dew Point Humidity Wind Precip. Elev Updated Type
                   

Watches & Warnings

Wind Chill Advisory
Issued: 2:43 PM AKST Jan. 20, 2017 – National Weather Service

... Wind Chill Advisory remains in effect until 6 PM akst
Saturday...

* wind chill values... to 55 below.

* Winds... southwest around 15 mph.

* Timing... winds have decreased this afternoon but are expected to
increase later tonight and cold wind chills will develop again
after midnight.

* Impacts... exposed skin may freeze quickly causing frostbite.

Precautionary/preparedness actions...

A Wind Chill Advisory means that low wind chills with sustained
wind speeds of 15 mph or more are occurring or expected. If
outdoors... cover exposed skin to prevent frostbite.